DW6997 Weather Reports


time (UTC)temp
C
wind
direction
speed
KPH
gust
KPH
rain 1hr
cm
rain 24hr
cm
rain mn
cm
humidity
%
barometer
mb
20210518194006 10 237 6.4 11.3 0.33 0.64 0.64 91 1012.0
20210518193006 10 237 4.8 9.7 0.38 0.64 0.64 91 1011.9
20210518192005 10 238 6.4 11.3 0.38 0.64 0.64 90 1011.8
20210518191005 10 239 4.8 11.3 0.38 0.64 0.64 90 1011.9
20210518190006 10 244 8.0 12.9 0.28 0.53 0.53 89 1012.0
20210518185006 10 259 8.0 16.1 0.15 0.41 0.41 88 1012.1
20210518184005 11 338 4.8 11.3 0.05 0.30 0.30 87 1012.1
20210518183005 11 336 3.2 8.0 0.00 0.25 0.25 86 1011.9
20210518182006 11 339 1.6 4.8 0.03 0.25 0.25 85 1011.7
20210518181005 11 337 3.2 6.4 0.05 0.25 0.25 85 1011.7
20210518180005 11 338 3.2 11.3 0.05 0.25 0.25 84 1011.6
20210518175005 11 346 3.2 6.4 0.05 0.25 0.25 83 1011.5
20210518174004 12 350 0.0 9.7 0.05 0.25 0.25 79 1011.4
20210518173004 13 351 1.6 4.8 0.05 0.25 0.25 75 1011.3
20210518172005 13 353 4.8 11.3 0.03 0.23 0.23 73 1011.2
20210518171004 14 354 4.8 11.3 0.00 0.23 0.23 70 1011.2
20210518170005 15 354 3.2 8.0 0.00 0.23 0.23 68 1011.1
20210518165004 15 354 4.8 8.0 0.00 0.23 0.23 65 1011.1
20210518164004 15 354 4.8 11.3 0.00 0.23 0.23 64 1011.1
20210518163004 16 350 4.8 9.7 0.00 0.23 0.23 63 1011.1
20210518162004 16 344 3.2 11.3 0.00 0.23 0.23 64 1011.2
20210518161004 16 331 1.6 8.0 0.00 0.23 0.23 62 1011.1
20210518160005 16 330 1.6 8.0 0.00 0.23 0.23 66 1011.2
20210518155005 15 330 1.6 9.7 0.00 0.23 0.23 66 1011.2
20210518154005 14 332 1.6 6.4 0.00 0.23 0.23 68 1011.2
20210518153004 14 336 3.2 8.0 0.00 0.23 0.23 72 1011.3
20210518152005 13 337 1.6 9.7 0.00 0.23 0.23 75 1011.4
20210518151005 13 337 3.2 6.4 0.00 0.23 0.23 74 1011.4
20210518150005 13 336 3.2 6.4 0.00 0.23 0.23 77 1011.4
20210518145005 13 333 4.8 9.7 0.00 0.23 0.23 78 1011.4
20210518144005 13 290 4.8 14.5 0.00 0.23 0.23 79 1011.5
20210518143004 12 134 3.2 9.7 0.00 0.23 0.23 80 1011.5
20210518142004 12 148 6.4 12.9 0.00 0.23 0.23 81 1011.5
20210518141005 11 167 6.4 11.3 0.00 0.23 0.23 82 1011.6
20210518140004 11 169 8.0 11.3 0.03 0.23 0.23 84 1011.7
20210518135004 11 169 8.0 12.9 0.03 0.23 0.23 84 1011.7
20210518134005 11 181 9.7 17.7 0.03 0.23 0.23 85 1011.8
20210518133004 11 193 9.7 19.3 0.05 0.23 0.23 86 1011.9
20210518132005 10 192 11.3 19.3 0.10 0.23 0.23 86 1011.8
20210518131005 10 188 9.7 22.5 0.15 0.23 0.23 85 1011.8
20210518130005 10 198 6.4 14.5 0.18 0.20 0.20 86 1011.8
20210518125005 10 207 6.4 8.0 0.18 0.20 0.20 84 1011.6
20210518124004 10 227 4.8 11.3 0.18 0.23 0.20 83 1011.5
20210518123004 10 237 6.4 9.7 0.15 0.18 0.15 81 1011.6
20210518122005 11 237 6.4 9.7 0.10 0.15 0.13 78 1011.5
20210518121005 11 230 8.0 17.7 0.05 0.08 0.05 71 1011.3
20210518120004 12 231 9.7 12.9 0.00 0.05 0.03 67 1011.2
20210518115004 13 230 8.0 17.7 0.00 0.05 0.03 64 1011.0
20210518114004 14 270 6.4 17.7 0.00 0.05 0.03 56 1010.9
20210518113004 15 271 3.2 12.9 0.00 0.05 0.03 53 1010.7
20210518112004 14 267 4.8 8.0 0.00 0.05 0.03 57 1010.6
20210518111004 14 270 4.8 11.3 0.00 0.05 0.03 56 1010.6
20210518110004 14 280 6.4 11.3 0.00 0.08 0.03 56 1010.5
20210518105005 14 293 8.0 16.1 0.00 0.08 0.03 56 1010.6
20210518104005 15 280 8.0 19.3 0.00 0.08 0.03 56 1010.7
20210518103004 14 265 8.0 16.1 0.00 0.08 0.03 62 1010.7
20210518102005 14 260 4.8 12.9 0.00 0.08 0.03 60 1010.8
20210518101005 13 291 6.4 16.1 0.00 0.08 0.03 63 1010.8
20210518100005 13 321 8.0 12.9 0.00 0.08 0.03 63 1010.8
20210518095004 13 288 9.7 16.1 0.00 0.08 0.03 68 1010.8
20210518094007 13 294 9.7 17.7 0.00 0.08 0.03 67 1010.7
20210518093005 12 265 9.7 17.7 0.00 0.08 0.03 67 1010.8
20210518092005 12 259 9.7 17.7 0.00 0.08 0.03 70 1010.8
20210518091004 13 283 8.0 16.1 0.00 0.08 0.03 67 1010.7
20210518090009 13 276 8.0 17.7 0.00 0.08 0.03 72 1010.8
20210518085004 12 279 8.0 14.5 0.00 0.08 0.03 71 1010.8
20210518084005 13 275 6.4 14.5 0.00 0.08 0.03 72 1010.8
20210518083005 12 282 8.0 14.5 0.00 0.08 0.03 75 1010.8
20210518082004 12 287 8.0 16.1 0.00 0.08 0.03 75 1010.8
20210518081004 11 268 8.0 14.5 0.00 0.08 0.03 78 1010.8
20210518080004 11 283 8.0 12.9 0.00 0.08 0.03 78 1010.8
20210518075005 11 291 8.0 14.5 0.00 0.08 0.03 78 1010.8
20210518074005 11 266 8.0 17.7 0.00 0.08 0.03 82 1010.7
20210518073005 11 251 8.0 19.3 0.00 0.08 0.03 82 1010.8
20210518072006 11 270 8.0 17.7 0.00 0.08 0.03 82 1010.8
20210518071005 10 243 6.4 16.1 0.00 0.08 0.03 85 1010.6
20210518070005 10 227 6.4 16.1 0.00 0.08 0.03 86 1010.6
20210518065006 9 229 6.4 8.0 0.00 0.08 0.03 87 1010.6
20210518064005 9 229 4.8 11.3 0.00 0.08 0.03 87 1010.7
20210518063005 9 228 4.8 12.9 0.00 0.08 0.03 88 1010.5
20210518062005 8 227 6.4 9.7 0.00 0.08 0.03 88 1010.4
20210518061004 8 228 6.4 12.9 0.00 0.08 0.03 88 1010.3
20210518060004 8 237 4.8 12.9 0.00 0.08 0.03 89 1010.3
20210518055005 8 238 4.8 8.0 0.00 0.08 0.03 90 1010.2
20210518054006 8 238 4.8 8.0 0.00 0.08 0.03 89 1010.2
20210518053005 8 238 4.8 9.7 0.00 0.08 0.03 90 1010.1
20210518052004 8 238 3.2 9.7 0.00 0.08 0.03 90 1010.1
20210518051004 8 238 3.2 6.4 0.00 0.08 0.03 89 1010.1
20210518050006 8 238 3.2 8.0 0.00 0.10 0.03 89 1009.9
20210518045005 8 238 4.8 8.0 0.00 0.10 0.03 89 1009.9
20210518044005 8 238 4.8 6.4 0.00 0.10 0.03 89 1009.8
20210518043005 8 239 4.8 11.3 0.00 0.10 0.03 89 1009.7
20210518042006 8 243 3.2 11.3 0.00 0.10 0.03 89 1009.7
20210518041005 8 244 4.8 8.0 0.00 0.10 0.03 89 1009.6
20210518040005 8 245 4.8 8.0 0.00 0.13 0.03 89 1009.6
20210518035005 8 245 4.8 8.0 0.00 0.13 0.03 89 1009.7
20210518034005 8 246 4.8 9.7 0.00 0.13 0.03 89 1009.7
20210518033005 8 247 3.2 8.0 0.03 0.13 0.03 88 1009.6
20210518032005 8 247 1.6 4.8 0.03 0.13 0.03 88 1009.7
20210518031005 8 0 0.0 4.8 0.03 0.13 0.03 87 1009.7
20210518030005 8 0 0.0 3.2 0.03 0.13 0.03 86 1009.7
20210518025006 8 247 1.6 1.6 0.03 0.13 0.03 86 1009.6
20210518024004 8 247 3.2 6.4 0.03 0.13 0.03 85 1009.6
20210518023006 8 247 1.6 8.0 0.00 0.10 0.00 85 1009.7
20210518022007 8 246 1.6 9.7 0.00 0.10 0.00 86 1009.6
20210518021005 8 245 1.6 8.0 0.00 0.10 0.00 87 1009.6
20210518020006 7 0 0.0 6.4 0.00 0.10 0.00 86 1009.6
20210518015005 7 245 0.0 4.8 0.00 0.10 0.00 86 1009.4
20210518014004 7 245 3.2 6.4 0.00 0.10 0.00 86 1009.3
20210518013006 7 247 6.4 11.3 0.00 0.10 0.00 86 1009.3
20210518012005 7 258 4.8 11.3 0.00 0.10 0.00 86 1009.3
20210518011005 7 262 4.8 8.0 0.00 0.10 0.00 85 1009.2
20210518010006 7 262 4.8 8.0 0.00 0.10 0.00 85 1009.3
20210518005006 7 263 4.8 8.0 0.00 0.10 0.00 85 1009.3
20210518004006 7 263 3.2 6.4 0.00 0.10 0.00 84 1009.2
20210518003005 8 263 4.8 8.0 0.00 0.10 0.00 84 1009.2
20210518002005 8 263 4.8 11.3 0.00 0.10 0.00 84 1009.2
20210518001005 8 264 6.4 11.3 0.00 0.10 0.00 83 1009.2
20210518000005 8 265 4.8 11.3 0.00 0.10 0.00 83 1009.3
20210517235005 8 266 4.8 9.7 0.00 0.10 0.00 82 1009.3
20210517234005 8 267 4.8 6.4 0.00 0.10 0.00 81 1009.4
20210517233005 8 267 4.8 8.0 0.00 0.10 0.00 81 1009.3
20210517232005 8 269 6.4 11.3 0.00 0.10 0.00 80 1009.3
20210517231005 8 270 6.4 11.3 0.00 0.10 0.00 80 1009.2
20210517230005 8 272 6.4 11.3 0.00 0.10 0.00 79 1009.3
20210517225006 8 270 6.4 14.5 0.00 0.10 0.10 78 1009.2
20210517224006 8 266 8.0 16.1 0.00 0.10 0.10 77 1009.2
20210517223006 8 264 6.4 17.7 0.00 0.10 0.10 77 1009.1
20210517222007 8 303 4.8 9.7 0.00 0.10 0.10 76 1009.0
20210517221005 8 302 3.2 8.0 0.00 0.10 0.10 75 1009.0
20210517220005 8 302 3.2 6.4 0.00 0.10 0.10 76 1008.9
20210517215006 8 303 3.2 4.8 0.00 0.10 0.10 76 1008.9
20210517214005 8 303 1.6 4.8 0.00 0.10 0.10 75 1008.9
20210517213005 8 303 1.6 4.8 0.00 0.10 0.10 74 1008.8
20210517212006 9 0 0.0 3.2 0.00 0.10 0.10 73 1008.8
20210517211005 9 0 0.0 0.0 0.00 0.10 0.10 72 1008.7
20210517210005 9 0 0.0 1.6 0.00 0.10 0.10 72 1008.7
20210517205006 10 0 0.0 3.2 0.00 0.10 0.10 71 1008.6
20210517204005 10 301 0.0 3.2 0.00 0.10 0.10 70 1008.6
20210517203005 10 303 1.6 3.2 0.00 0.10 0.10 69 1008.5
20210517202005 10 302 3.2 6.4 0.00 0.10 0.10 68 1008.4
20210517201005 10 301 3.2 8.0 0.00 0.10 0.10 67 1008.2
20210517200006 10 302 3.2 8.0 0.00 0.10 0.10 66 1008.1
20210517195005 11 302 4.8 9.7 0.00 0.10 0.10 66 1008.0